Milford, Indiana
Current Conditions -  °F | °C
As of 6:53 AM on Tuesday 27 Jan 2015 (Local Time) from KGSH Reporting Station
Overcast Overcast  
Wind Chill: 14°   Ceiling: 7500
Heat Index: 22°   Visibility: 10mi
Dew Point: 14°   Wind: 6mph
Humidity: 72%   Direction: 30°NNE
Pressure: 30.02"   Gusts: NA
Location:  41.41°N, 85.85°W
Report Text: KGSH 271153Z AUTO 03005KT 10SM OVC075 M06/M10 A3002 RMK AO2 SLP179 T10561100 11056 21061 53021
Loading
Personal Weather Stations






























Interactive Weather Map New forecast layout! Learn more

10-Day Weather Forecast

Advertisements
Track Severe Weather on mobile